Falls International Airport

Date: 2024-06-11 11:54:00Z

Type: METAR

Weather: Light Rain

Winds: 150° at 7 kts

Visibility: 5

Ceiling (AGL FT): Clouds OVERCAST at 6000, SCATTERED at 10000, BROKEN at 7000, OVERCAST at 13000

RAW METAR: KINL 111154Z AUTO 15007KT 5SM -RA BR OVC060 11/08 A2976 RMK AO2 SLP079 P0004 60013 70013 T01060083 10139 20106 58016

project-image